createdAt,value
2023-10-05T00:02:11.244Z,65.60
2023-10-05T00:04:44.225Z,65.80
2023-10-05T00:07:25.010Z,65.80
2023-10-05T00:09:52.245Z,65.80
2023-10-05T00:12:25.339Z,65.70
2023-10-05T00:15:05.760Z,65.80
2023-10-05T00:17:34.535Z,65.80
2023-10-05T00:20:01.317Z,65.80
2023-10-05T00:22:28.129Z,65.90
2023-10-05T00:24:55.018Z,65.80
2023-10-05T00:27:21.935Z,65.80
2023-10-05T00:29:55.052Z,65.90
2023-10-05T00:32:35.676Z,65.80
2023-10-05T00:35:15.645Z,65.90
2023-10-05T00:37:47.097Z,65.90
2023-10-05T00:40:33.062Z,66.00
2023-10-05T00:43:06.411Z,66.00
2023-10-05T00:45:34.739Z,66.10
2023-10-05T00:48:14.569Z,65.80
2023-10-05T00:50:41.721Z,65.90
2023-10-05T00:53:09.576Z,65.70
2023-10-05T00:55:37.204Z,65.90
2023-10-05T00:58:11.824Z,65.80
2023-10-05T01:00:51.615Z,65.90
2023-10-05T01:03:26.418Z,65.20
2023-10-05T01:06:13.189Z,65.70
2023-10-05T01:08:56.197Z,65.30
2023-10-05T01:11:31.152Z,66.00
2023-10-05T01:14:01.687Z,66.10
2023-10-05T01:16:29.174Z,66.20
2023-10-05T01:18:56.102Z,66.30
2023-10-05T01:21:26.036Z,66.20
2023-10-05T01:23:52.889Z,66.30
2023-10-05T01:26:19.968Z,66.10
2023-10-05T01:28:46.756Z,66.00
2023-10-05T01:31:18.797Z,66.30
2023-10-05T01:33:46.448Z,66.20
2023-10-05T01:36:13.507Z,66.20
2023-10-05T01:38:41.390Z,66.10
2023-10-05T01:41:11.427Z,66.20
2023-10-05T01:43:44.312Z,66.30
2023-10-05T01:46:15.295Z,66.30
2023-10-05T01:48:42.420Z,66.10
2023-10-05T01:51:11.625Z,66.30
2023-10-05T01:53:38.450Z,66.30
2023-10-05T01:56:12.302Z,66.20
2023-10-05T01:58:40.552Z,66.20
2023-10-05T02:01:07.998Z,66.10
2023-10-05T02:03:35.170Z,65.90
2023-10-05T02:06:07.350Z,65.80
2023-10-05T02:08:37.014Z,65.80
2023-10-05T02:11:05.477Z,66.00
2023-10-05T02:13:33.060Z,65.90
2023-10-05T02:16:01.196Z,66.00
2023-10-05T02:18:29.696Z,65.90
2023-10-05T02:21:10.046Z,65.80
2023-10-05T02:23:43.623Z,65.90
2023-10-05T02:26:24.667Z,65.80
2023-10-05T02:28:52.764Z,65.90
2023-10-05T02:31:21.587Z,65.80
2023-10-05T02:33:48.932Z,65.90
2023-10-05T02:36:22.097Z,66.00
2023-10-05T02:38:50.651Z,65.90
2023-10-05T02:41:24.840Z,65.90
2023-10-05T02:43:55.562Z,65.90
2023-10-05T02:46:25.532Z,65.90
2023-10-05T02:48:53.029Z,65.90
2023-10-05T02:51:19.989Z,65.90
2023-10-05T02:53:47.940Z,65.90
2023-10-05T02:56:21.679Z,65.90
2023-10-05T02:58:53.281Z,65.90
2023-10-05T03:01:20.211Z,65.90
2023-10-05T03:03:48.967Z,65.90
2023-10-05T03:06:16.885Z,66.10
2023-10-05T03:08:46.395Z,66.00
2023-10-05T03:11:13.578Z,65.90
2023-10-05T03:13:40.342Z,65.70
2023-10-05T03:16:11.777Z,65.80
2023-10-05T03:18:42.024Z,65.80
2023-10-05T03:21:10.791Z,66.00
2023-10-05T03:23:38.520Z,66.00
2023-10-05T03:26:07.145Z,65.80
2023-10-05T03:28:36.522Z,65.70
2023-10-05T03:31:08.708Z,65.90
2023-10-05T03:33:36.141Z,65.90
2023-10-05T03:36:07.845Z,65.80
2023-10-05T03:38:36.209Z,65.90
2023-10-05T03:41:05.479Z,65.70
2023-10-05T03:43:32.768Z,65.80
2023-10-05T03:46:08.021Z,65.80
2023-10-05T03:48:43.601Z,65.90
2023-10-05T03:51:16.421Z,65.70
2023-10-05T03:53:49.693Z,65.80
2023-10-05T03:56:19.897Z,65.70
2023-10-05T03:58:49.886Z,65.70
2023-10-05T04:01:18.530Z,65.70
2023-10-05T04:03:47.688Z,65.70
2023-10-05T04:06:27.238Z,65.50
2023-10-05T04:09:01.210Z,65.70
2023-10-05T04:11:28.325Z,65.70
2023-10-05T04:13:56.158Z,65.70
2023-10-05T04:16:30.234Z,65.70
2023-10-05T04:19:00.240Z,65.80
2023-10-05T04:21:27.584Z,65.80
2023-10-05T04:23:57.203Z,65.80
2023-10-05T04:26:27.790Z,65.80
2023-10-05T04:28:55.710Z,65.80
2023-10-05T04:31:28.940Z,65.80
2023-10-05T04:33:57.407Z,65.80
2023-10-05T04:36:25.197Z,65.90
2023-10-05T04:38:56.422Z,65.80
2023-10-05T04:41:30.008Z,65.80
2023-10-05T04:43:58.046Z,65.60
2023-10-05T04:46:25.772Z,65.60
2023-10-05T04:49:10.963Z,65.80
2023-10-05T04:51:40.172Z,65.80
2023-10-05T04:54:08.762Z,65.90
2023-10-05T04:56:41.874Z,65.90
2023-10-05T04:59:18.700Z,65.90
2023-10-05T05:01:51.829Z,65.90
2023-10-05T05:04:38.553Z,66.10
2023-10-05T05:07:10.357Z,66.00
2023-10-05T05:09:45.410Z,66.00
2023-10-05T05:12:21.417Z,66.10
2023-10-05T05:14:55.616Z,66.00
2023-10-05T05:17:25.458Z,66.00
2023-10-05T05:19:57.081Z,66.10
2023-10-05T05:22:25.156Z,66.10
2023-10-05T05:24:52.165Z,66.40
2023-10-05T05:27:18.969Z,66.30
2023-10-05T05:29:46.685Z,66.20
2023-10-05T05:32:16.763Z,66.20
2023-10-05T05:34:45.586Z,66.30
2023-10-05T05:37:30.157Z,66.30
2023-10-05T05:39:59.282Z,66.40
2023-10-05T05:42:31.621Z,66.30
2023-10-05T05:44:58.811Z,66.10
2023-10-05T05:47:25.693Z,66.30
2023-10-05T05:49:52.481Z,66.20
2023-10-05T05:52:21.041Z,66.30
2023-10-05T05:54:48.153Z,66.10
2023-10-05T05:57:21.805Z,66.30
2023-10-05T05:59:48.951Z,66.30
2023-10-05T06:02:15.846Z,66.20
2023-10-05T06:04:42.931Z,66.20
2023-10-05T06:07:14.257Z,66.30
2023-10-05T06:09:49.640Z,66.50
2023-10-05T06:12:16.725Z,66.40
2023-10-05T06:14:43.889Z,66.40
2023-10-05T06:17:11.386Z,66.40
2023-10-05T06:19:38.472Z,66.30
2023-10-05T06:22:07.803Z,66.30
2023-10-05T06:24:43.239Z,66.50
2023-10-05T06:27:10.069Z,66.50
2023-10-05T06:29:36.853Z,66.30
2023-10-05T06:32:05.846Z,66.10
2023-10-05T06:34:32.935Z,66.30
2023-10-05T06:37:02.990Z,66.40
2023-10-05T06:39:31.750Z,66.40
2023-10-05T06:41:58.537Z,66.60
2023-10-05T06:44:25.766Z,66.40
2023-10-05T06:46:54.665Z,66.40
2023-10-05T06:49:23.991Z,66.30
2023-10-05T06:51:51.248Z,66.30
2023-10-05T06:54:18.823Z,66.40
2023-10-05T06:56:50.638Z,66.40
2023-10-05T06:59:17.541Z,66.40
2023-10-05T07:01:44.534Z,66.40
2023-10-05T07:04:13.527Z,66.30
2023-10-05T07:06:40.676Z,66.20
2023-10-05T07:09:07.513Z,66.20
2023-10-05T07:11:34.473Z,66.10
2023-10-05T07:14:01.440Z,66.10
2023-10-05T07:16:30.341Z,66.00
2023-10-05T07:18:57.242Z,66.10
2023-10-05T07:21:24.448Z,65.90
2023-10-05T07:23:51.227Z,65.70
2023-10-05T07:26:18.165Z,66.10
2023-10-05T07:28:45.051Z,66.20
2023-10-05T07:31:12.202Z,66.00
2023-10-05T07:33:39.367Z,65.90
2023-10-05T07:36:06.690Z,66.10
2023-10-05T07:38:33.830Z,65.80
2023-10-05T07:41:04.435Z,66.00
2023-10-05T07:43:33.403Z,65.80
2023-10-05T07:46:01.952Z,65.80
2023-10-05T07:48:29.367Z,65.90
2023-10-05T07:50:56.328Z,66.10
2023-10-05T07:53:23.699Z,66.20
2023-10-05T07:55:51.050Z,66.00
2023-10-05T07:58:18.472Z,65.80
2023-10-05T08:00:46.827Z,65.80
2023-10-05T08:03:14.095Z,66.00
2023-10-05T08:05:41.404Z,66.00
2023-10-05T08:08:08.701Z,65.90
2023-10-05T08:10:35.606Z,65.70
2023-10-05T08:13:04.614Z,65.70
2023-10-05T08:15:32.052Z,65.80
2023-10-05T08:17:58.973Z,65.60
2023-10-05T08:20:28.645Z,65.80
2023-10-05T08:22:57.707Z,65.80
2023-10-05T08:25:27.648Z,66.00
2023-10-05T08:27:56.669Z,65.80
2023-10-05T08:30:26.796Z,65.50
2023-10-05T08:32:54.528Z,65.80
2023-10-05T08:35:22.621Z,65.90
2023-10-05T08:37:50.930Z,65.90
2023-10-05T08:40:34.157Z,66.10
2023-10-05T08:43:14.093Z,66.00
2023-10-05T08:45:49.132Z,66.00
2023-10-05T08:48:24.090Z,66.50
2023-10-05T08:50:55.533Z,66.40
2023-10-05T08:53:23.371Z,66.30
2023-10-05T08:55:52.612Z,66.20
2023-10-05T08:58:21.824Z,66.20
2023-10-05T09:00:49.549Z,66.30
2023-10-05T09:03:36.598Z,66.50
2023-10-05T09:06:15.115Z,66.40
2023-10-05T09:08:53.182Z,66.40
2023-10-05T09:11:32.279Z,66.30
2023-10-05T09:14:09.795Z,66.30
2023-10-05T09:16:42.256Z,66.30
2023-10-05T09:19:13.622Z,66.40
2023-10-05T09:21:52.320Z,66.30
2023-10-05T09:24:21.458Z,66.30
2023-10-05T09:27:16.165Z,66.10
2023-10-05T09:29:45.029Z,66.10
2023-10-05T09:32:31.878Z,66.00
2023-10-05T09:35:01.707Z,66.20
2023-10-05T09:37:29.341Z,66.00
2023-10-05T09:40:00.717Z,66.10
2023-10-05T09:42:28.551Z,66.10
2023-10-05T09:45:00.237Z,66.10
2023-10-05T09:47:33.413Z,65.90
2023-10-05T09:50:10.979Z,66.00
2023-10-05T09:52:44.514Z,66.00
2023-10-05T09:55:20.521Z,66.10
2023-10-05T09:57:48.143Z,66.20
2023-10-05T10:00:28.298Z,66.20
2023-10-05T10:03:04.798Z,66.20
2023-10-05T10:05:37.384Z,66.20
2023-10-05T10:08:22.362Z,66.10
2023-10-05T10:10:53.749Z,66.10
2023-10-05T10:13:23.924Z,65.90
2023-10-05T10:15:54.905Z,66.20
2023-10-05T10:18:32.172Z,66.20
2023-10-05T10:20:59.440Z,66.30
2023-10-05T10:23:38.098Z,66.50
2023-10-05T10:26:22.063Z,66.40
2023-10-05T10:29:07.411Z,66.60
2023-10-05T10:31:44.034Z,66.60
2023-10-05T10:34:19.556Z,66.50
2023-10-05T10:36:47.655Z,66.50
2023-10-05T10:39:44.126Z,66.50
2023-10-05T10:42:20.312Z,66.50
2023-10-05T10:44:53.101Z,66.50
2023-10-05T10:47:20.861Z,66.50
2023-10-05T10:50:18.760Z,66.60
2023-10-05T10:52:45.804Z,66.50
2023-10-05T10:55:16.814Z,66.50
2023-10-05T10:57:46.595Z,66.60
2023-10-05T11:00:32.895Z,66.60
2023-10-05T11:02:59.650Z,66.60
2023-10-05T11:05:41.336Z,66.60
2023-10-05T11:08:10.147Z,66.70
2023-10-05T11:10:37.071Z,66.80
2023-10-05T11:13:19.515Z,66.80
2023-10-05T11:15:59.948Z,66.90
2023-10-05T11:18:52.362Z,66.70
2023-10-05T11:21:24.894Z,66.80
2023-10-05T11:23:57.380Z,67.00
2023-10-05T11:26:34.739Z,67.00
2023-10-05T11:29:16.458Z,67.00
2023-10-05T11:31:48.218Z,67.10
2023-10-05T11:35:19.201Z,66.70
2023-10-05T11:37:17.695Z,66.20
2023-10-05T11:39:50.752Z,66.40
2023-10-05T11:42:27.059Z,66.30
2023-10-05T11:44:57.218Z,66.20
2023-10-05T11:47:36.501Z,66.00
2023-10-05T11:50:10.033Z,65.50
2023-10-05T11:52:39.908Z,65.40
2023-10-05T11:55:12.794Z,65.40
2023-10-05T11:57:39.882Z,65.20
2023-10-05T12:00:07.534Z,65.40
2023-10-05T12:02:34.556Z,65.20
2023-10-05T12:05:04.796Z,65.20
2023-10-05T12:07:32.112Z,65.80
2023-10-05T12:09:58.784Z,65.30
2023-10-05T12:12:26.816Z,65.20
2023-10-05T12:14:53.541Z,65.40
2023-10-05T12:17:24.750Z,65.50
2023-10-05T12:19:52.959Z,65.20
2023-10-05T12:22:19.776Z,64.90
2023-10-05T12:24:47.025Z,65.30
2023-10-05T12:27:21.937Z,64.90
2023-10-05T12:29:48.777Z,65.30
2023-10-05T12:32:15.523Z,64.60
2023-10-05T12:34:49.417Z,64.80
2023-10-05T12:37:20.569Z,64.40
2023-10-05T12:39:47.548Z,64.50
2023-10-05T12:42:15.274Z,63.90
2023-10-05T12:44:42.112Z,64.00
2023-10-05T12:47:09.543Z,64.00
2023-10-05T12:49:36.590Z,64.10
2023-10-05T12:52:03.655Z,64.20
2023-10-05T12:54:30.619Z,64.10
2023-10-05T12:57:09.504Z,63.90
2023-10-05T12:59:45.258Z,64.20
2023-10-05T13:02:16.896Z,64.40
2023-10-05T13:04:44.303Z,64.10
2023-10-05T13:07:11.128Z,63.80
2023-10-05T13:09:39.403Z,64.00
2023-10-05T13:12:13.269Z,63.90
2023-10-05T13:14:40.725Z,63.50
2023-10-05T13:17:13.532Z,63.60
2023-10-05T13:19:41.038Z,63.60
2023-10-05T13:22:08.026Z,63.00
2023-10-05T13:24:35.289Z,63.20
2023-10-05T13:27:02.575Z,63.10
2023-10-05T13:29:29.563Z,62.20
2023-10-05T13:31:57.936Z,62.70
2023-10-05T13:34:29.210Z,63.30
2023-10-05T13:36:56.342Z,63.30
2023-10-05T13:39:23.159Z,63.10
2023-10-05T13:42:01.201Z,63.10
2023-10-05T13:44:28.876Z,62.60
2023-10-05T13:46:57.112Z,62.90
2023-10-05T13:49:29.756Z,63.50
2023-10-05T13:51:58.258Z,63.10
2023-10-05T13:54:24.931Z,62.80
2023-10-05T13:56:51.752Z,62.90
2023-10-05T13:59:18.697Z,63.60
2023-10-05T14:01:46.154Z,62.90
2023-10-05T14:04:16.067Z,62.60
2023-10-05T14:06:45.902Z,62.30
2023-10-05T14:09:13.522Z,62.70
2023-10-05T14:11:42.020Z,62.00
2023-10-05T14:14:10.636Z,62.10
2023-10-05T14:16:51.580Z,62.50
2023-10-05T14:19:19.283Z,62.40
2023-10-05T14:21:46.351Z,62.80
2023-10-05T14:24:14.486Z,63.30
2023-10-05T14:26:45.878Z,62.10
2023-10-05T14:29:13.710Z,62.50
2023-10-05T14:31:42.535Z,62.60
2023-10-05T14:34:10.972Z,62.60
2023-10-05T14:36:37.697Z,62.50
2023-10-05T14:39:15.522Z,62.50
2023-10-05T14:41:45.138Z,62.60
2023-10-05T14:44:12.517Z,62.10
2023-10-05T14:46:40.279Z,62.40
2023-10-05T14:49:08.611Z,62.00
2023-10-05T14:51:35.697Z,62.40
2023-10-05T14:54:02.495Z,62.30
2023-10-05T14:56:29.228Z,62.40
2023-10-05T14:58:55.962Z,62.10
2023-10-05T15:01:24.151Z,62.50
2023-10-05T15:03:51.078Z,61.90
2023-10-05T15:06:19.751Z,61.90
2023-10-05T15:08:47.017Z,62.40
2023-10-05T15:11:13.863Z,62.60
2023-10-05T15:13:40.738Z,62.60
2023-10-05T15:16:07.555Z,62.80
2023-10-05T15:18:36.192Z,62.50
2023-10-05T15:21:04.013Z,62.70
2023-10-05T15:23:30.817Z,62.50
2023-10-05T15:25:58.230Z,62.60
2023-10-05T15:28:25.715Z,62.60
2023-10-05T15:30:53.726Z,62.90
2023-10-05T15:33:24.895Z,62.50
2023-10-05T15:35:51.730Z,62.50
2023-10-05T15:38:20.410Z,62.70
2023-10-05T15:40:47.536Z,62.60
2023-10-05T15:43:15.338Z,62.60
2023-10-05T15:45:42.238Z,62.40
2023-10-05T15:48:11.689Z,62.50
2023-10-05T15:50:41.910Z,62.30
2023-10-05T15:53:08.873Z,62.80
2023-10-05T15:55:36.974Z,62.60
2023-10-05T15:58:13.861Z,62.80
2023-10-05T16:00:40.637Z,63.00
2023-10-05T16:03:12.214Z,63.00
2023-10-05T16:05:41.237Z,63.10
2023-10-05T16:08:08.864Z,63.00
2023-10-05T16:10:39.256Z,63.10
2023-10-05T16:13:09.876Z,63.10
2023-10-05T16:15:38.415Z,63.20
2023-10-05T16:18:05.589Z,63.30
2023-10-05T16:20:33.659Z,63.30
2023-10-05T16:23:05.832Z,63.20
2023-10-05T16:25:33.720Z,63.20
2023-10-05T16:28:02.531Z,63.20
2023-10-05T16:30:29.484Z,63.30
2023-10-05T16:32:56.416Z,63.30
2023-10-05T16:35:24.026Z,63.40
2023-10-05T16:37:51.092Z,63.50
2023-10-05T16:40:21.266Z,63.50
2023-10-05T16:42:49.559Z,63.60
2023-10-05T16:45:20.879Z,63.50
2023-10-05T16:47:49.608Z,63.40
2023-10-05T16:50:21.917Z,63.60
2023-10-05T16:52:50.995Z,63.60
2023-10-05T16:55:21.000Z,63.60
2023-10-05T16:57:50.387Z,63.60
2023-10-05T17:00:17.806Z,63.60
2023-10-05T17:02:45.641Z,63.60
2023-10-05T17:05:19.357Z,63.50
2023-10-05T17:07:56.534Z,63.40
2023-10-05T17:10:25.162Z,63.60
2023-10-05T17:12:55.492Z,63.70
2023-10-05T17:15:24.093Z,63.70
2023-10-05T17:17:51.655Z,63.80
2023-10-05T17:20:18.725Z,63.80
2023-10-05T17:22:45.548Z,63.90
2023-10-05T17:25:12.487Z,64.00
2023-10-05T17:27:39.320Z,64.10
2023-10-05T17:30:07.017Z,64.20
2023-10-05T17:32:34.568Z,64.30
2023-10-05T17:35:02.115Z,64.40
2023-10-05T17:37:29.931Z,64.40
2023-10-05T17:39:57.744Z,64.50
2023-10-05T17:42:26.053Z,64.50
2023-10-05T17:44:53.355Z,64.60
2023-10-05T17:47:22.280Z,64.60
2023-10-05T17:49:52.101Z,64.70
2023-10-05T17:52:20.036Z,64.80
2023-10-05T17:54:48.600Z,64.80
2023-10-05T17:57:15.817Z,64.90
2023-10-05T17:59:42.812Z,64.90
2023-10-05T18:02:10.428Z,65.00
2023-10-05T18:04:37.449Z,65.00
2023-10-05T18:07:07.784Z,65.00
2023-10-05T18:09:38.116Z,65.10
2023-10-05T18:12:09.066Z,65.10
2023-10-05T18:14:37.144Z,65.20
2023-10-05T18:17:06.207Z,65.10
2023-10-05T18:19:33.229Z,65.20
2023-10-05T18:22:00.072Z,65.20
2023-10-05T18:24:26.810Z,65.30
2023-10-05T18:26:53.441Z,65.40
2023-10-05T18:29:20.740Z,65.40
2023-10-05T18:31:47.692Z,65.40
2023-10-05T18:34:14.698Z,65.50
2023-10-05T18:36:42.190Z,65.60
2023-10-05T18:39:14.750Z,65.60
2023-10-05T18:41:43.083Z,65.70
2023-10-05T18:44:10.634Z,65.70
2023-10-05T18:46:37.583Z,65.70
2023-10-05T18:49:07.340Z,65.70
2023-10-05T18:51:34.348Z,65.80
2023-10-05T18:54:01.088Z,65.80
2023-10-05T18:56:29.942Z,65.80
2023-10-05T18:58:57.264Z,65.90
2023-10-05T19:01:25.567Z,65.80
2023-10-05T19:03:52.912Z,65.90
2023-10-05T19:06:20.826Z,65.90
2023-10-05T19:08:47.544Z,65.90
2023-10-05T19:11:14.343Z,66.00
2023-10-05T19:13:41.843Z,66.00
2023-10-05T19:16:09.937Z,66.00
2023-10-05T19:18:38.508Z,66.00
2023-10-05T19:21:05.474Z,66.10
2023-10-05T19:23:32.233Z,66.00
2023-10-05T19:26:02.039Z,66.10
2023-10-05T19:28:28.881Z,66.20
2023-10-05T19:31:00.726Z,66.10
2023-10-05T19:33:27.831Z,66.20
2023-10-05T19:35:54.789Z,66.10
2023-10-05T19:38:21.679Z,66.30
2023-10-05T19:40:50.244Z,66.30
2023-10-05T19:43:17.254Z,66.20
2023-10-05T19:45:44.137Z,66.20
2023-10-05T19:48:11.955Z,66.20
2023-10-05T19:50:40.091Z,66.30
2023-10-05T19:53:08.282Z,66.30
2023-10-05T19:55:35.021Z,66.30
2023-10-05T19:58:06.038Z,66.30
2023-10-05T20:00:36.198Z,66.40
2023-10-05T20:03:03.400Z,66.40
2023-10-05T20:05:30.392Z,66.60
2023-10-05T20:08:00.018Z,66.60
2023-10-05T20:10:34.030Z,66.60
2023-10-05T20:13:03.893Z,66.80
2023-10-05T20:15:30.550Z,66.70
2023-10-05T20:17:57.340Z,66.80
2023-10-05T20:20:24.394Z,66.90
2023-10-05T20:22:51.534Z,66.90
2023-10-05T20:25:18.500Z,66.90
2023-10-05T20:27:45.257Z,66.90
2023-10-05T20:30:12.722Z,67.00
2023-10-05T20:32:39.567Z,67.00
2023-10-05T20:35:07.264Z,67.10
2023-10-05T20:37:34.240Z,67.10
2023-10-05T20:40:01.576Z,67.10
2023-10-05T20:42:28.305Z,67.20
2023-10-05T20:44:55.437Z,67.20
2023-10-05T20:47:22.302Z,67.20
2023-10-05T20:49:49.418Z,67.20
2023-10-05T20:52:16.250Z,67.20
2023-10-05T20:54:42.991Z,67.20
2023-10-05T20:57:10.020Z,67.20
2023-10-05T20:59:36.928Z,67.20
2023-10-05T21:02:04.072Z,67.20
2023-10-05T21:04:35.023Z,67.20
2023-10-05T21:07:02.554Z,67.20
2023-10-05T21:09:29.388Z,67.20
2023-10-05T21:11:56.674Z,67.20
2023-10-05T21:14:29.072Z,67.20
2023-10-05T21:16:56.100Z,67.20
2023-10-05T21:19:22.919Z,67.10
2023-10-05T21:21:49.574Z,67.20
2023-10-05T21:24:16.576Z,67.10
2023-10-05T21:26:43.236Z,67.10
2023-10-05T21:29:10.453Z,67.10
2023-10-05T21:31:37.342Z,67.00
2023-10-05T21:34:07.131Z,67.00
2023-10-05T21:36:33.960Z,66.80
2023-10-05T21:39:00.722Z,66.90
2023-10-05T21:41:27.521Z,66.80
2023-10-05T21:43:54.921Z,66.80
2023-10-05T21:46:22.018Z,66.80
2023-10-05T21:48:48.798Z,66.70
2023-10-05T21:51:15.634Z,66.70
2023-10-05T21:53:42.506Z,66.70
2023-10-05T21:56:10.654Z,66.80
2023-10-05T21:58:37.487Z,66.80
2023-10-05T22:01:04.416Z,66.80
2023-10-05T22:03:31.194Z,66.80
2023-10-05T22:05:58.179Z,66.90
2023-10-05T22:08:25.223Z,66.90
2023-10-05T22:10:52.179Z,66.90
2023-10-05T22:13:18.985Z,67.00
2023-10-05T22:15:46.005Z,67.00
2023-10-05T22:18:13.002Z,67.00
2023-10-05T22:20:40.230Z,67.00
2023-10-05T22:23:08.372Z,67.10
2023-10-05T22:25:40.192Z,67.00
2023-10-05T22:28:08.621Z,67.10
2023-10-05T22:30:36.109Z,66.90
2023-10-05T22:33:03.716Z,66.90
2023-10-05T22:35:30.696Z,66.90
2023-10-05T22:37:58.775Z,66.90
2023-10-05T22:40:25.753Z,66.90
2023-10-05T22:42:52.560Z,66.80
2023-10-05T22:45:19.302Z,66.80
2023-10-05T22:47:46.061Z,66.80
2023-10-05T22:50:13.224Z,66.70
2023-10-05T22:52:43.026Z,66.80
2023-10-05T22:55:10.086Z,66.90
2023-10-05T22:57:36.858Z,66.80
2023-10-05T23:00:05.699Z,66.80
2023-10-05T23:02:32.621Z,66.70
2023-10-05T23:04:59.849Z,66.80
2023-10-05T23:07:29.026Z,66.90
2023-10-05T23:09:55.979Z,66.90
2023-10-05T23:12:22.657Z,66.90
2023-10-05T23:14:52.329Z,67.00
2023-10-05T23:17:19.338Z,67.00
2023-10-05T23:19:46.318Z,67.00
2023-10-05T23:22:13.715Z,67.00
2023-10-05T23:24:42.700Z,67.00
2023-10-05T23:27:13.094Z,67.00
2023-10-05T23:29:40.557Z,66.90
2023-10-05T23:32:07.667Z,66.90
2023-10-05T23:34:39.128Z,66.90
2023-10-05T23:37:09.566Z,66.90
2023-10-05T23:39:36.727Z,66.80
2023-10-05T23:42:13.300Z,66.80
2023-10-05T23:44:40.696Z,66.90
2023-10-05T23:47:24.059Z,66.90
2023-10-05T23:49:53.685Z,66.90
2023-10-05T23:52:20.597Z,67.00
2023-10-05T23:54:47.284Z,67.00
2023-10-05T23:57:21.926Z,66.90
2023-10-05T23:59:49.831Z,67.00
